sensor_id;sensor_type;location;lat;lon;timestamp;P1;durP1;ratioP1;P2;durP2;ratioP2
40847;SDS011;26570;50.962;5.340;2022-10-16T00:02:36;0.97;;;0.30;;
40847;SDS011;26570;50.962;5.340;2022-10-16T00:05:21;2.70;;;0.30;;
40847;SDS011;26570;50.962;5.340;2022-10-16T00:08:07;0.80;;;0.30;;
40847;SDS011;26570;50.962;5.340;2022-10-16T00:10:58;0.60;;;0.20;;
40847;SDS011;26570;50.962;5.340;2022-10-16T00:13:46;1.20;;;0.30;;
40847;SDS011;26570;50.962;5.340;2022-10-16T00:16:33;1.33;;;0.30;;
40847;SDS011;26570;50.962;5.340;2022-10-16T00:19:19;1.80;;;0.30;;
40847;SDS011;26570;50.962;5.340;2022-10-16T00:22:04;2.33;;;0.30;;
40847;SDS011;26570;50.962;5.340;2022-10-16T00:24:50;3.23;;;0.40;;
40847;SDS011;26570;50.962;5.340;2022-10-16T00:27:35;1.60;;;0.40;;
40847;SDS011;26570;50.962;5.340;2022-10-16T00:30:20;2.40;;;0.30;;
40847;SDS011;26570;50.962;5.340;2022-10-16T00:33:06;3.73;;;0.30;;
40847;SDS011;26570;50.962;5.340;2022-10-16T00:35:52;1.40;;;0.30;;
40847;SDS011;26570;50.962;5.340;2022-10-16T00:38:37;1.03;;;0.37;;
40847;SDS011;26570;50.962;5.340;2022-10-16T00:41:22;5.87;;;0.30;;
40847;SDS011;26570;50.962;5.340;2022-10-16T00:47:29;1.03;;;0.60;;
40847;SDS011;26570;50.962;5.340;2022-10-16T00:50:30;1.73;;;0.20;;
40847;SDS011;26570;50.962;5.340;2022-10-16T00:53:17;1.20;;;0.20;;
40847;SDS011;26570;50.962;5.340;2022-10-16T00:56:03;1.90;;;0.20;;
40847;SDS011;26570;50.962;5.340;2022-10-16T00:58:48;2.33;;;0.20;;
40847;SDS011;26570;50.962;5.340;2022-10-16T01:01:33;0.87;;;0.20;;
40847;SDS011;26570;50.962;5.340;2022-10-16T01:04:19;2.67;;;0.20;;
40847;SDS011;26570;50.962;5.340;2022-10-16T01:13:38;1.70;;;0.17;;
40847;SDS011;26570;50.962;5.340;2022-10-16T01:16:29;1.03;;;0.20;;
40847;SDS011;26570;50.962;5.340;2022-10-16T01:19:31;1.17;;;0.13;;
40847;SDS011;26570;50.962;5.340;2022-10-16T01:22:39;0.30;;;0.10;;
40847;SDS011;26570;50.962;5.340;2022-10-16T01:28:26;0.70;;;0.20;;
40847;SDS011;26570;50.962;5.340;2022-10-16T01:31:17;1.67;;;0.17;;
40847;SDS011;26570;50.962;5.340;2022-10-16T01:34:08;0.97;;;0.20;;
40847;SDS011;26570;50.962;5.340;2022-10-16T01:37:05;1.83;;;0.20;;
40847;SDS011;26570;50.962;5.340;2022-10-16T01:39:57;2.67;;;0.17;;
40847;SDS011;26570;50.962;5.340;2022-10-16T01:42:49;8.03;;;0.20;;
40847;SDS011;26570;50.962;5.340;2022-10-16T01:45:56;1.17;;;0.20;;
40847;SDS011;26570;50.962;5.340;2022-10-16T01:48:42;2.10;;;0.20;;
40847;SDS011;26570;50.962;5.340;2022-10-16T01:51:27;0.83;;;0.20;;
40847;SDS011;26570;50.962;5.340;2022-10-16T01:54:16;1.07;;;0.20;;
40847;SDS011;26570;50.962;5.340;2022-10-16T01:57:05;0.93;;;0.20;;
40847;SDS011;26570;50.962;5.340;2022-10-16T01:59:52;0.83;;;0.20;;
40847;SDS011;26570;50.962;5.340;2022-10-16T02:02:41;0.40;;;0.20;;
40847;SDS011;26570;50.962;5.340;2022-10-16T02:05:40;1.10;;;0.20;;
40847;SDS011;26570;50.962;5.340;2022-10-16T02:08:38;1.70;;;0.20;;
40847;SDS011;26570;50.962;5.340;2022-10-16T02:11:28;2.60;;;0.20;;
40847;SDS011;26570;50.962;5.340;2022-10-16T02:14:13;1.20;;;0.30;;
40847;SDS011;26570;50.962;5.340;2022-10-16T02:16:59;2.17;;;0.20;;
40847;SDS011;26570;50.962;5.340;2022-10-16T02:19:44;0.80;;;0.13;;
40847;SDS011;26570;50.962;5.340;2022-10-16T02:28:35;2.03;;;0.20;;
40847;SDS011;26570;50.962;5.340;2022-10-16T02:31:27;0.67;;;0.20;;
40847;SDS011;26570;50.962;5.340;2022-10-16T02:34:14;1.43;;;0.20;;
40847;SDS011;26570;50.962;5.340;2022-10-16T02:37:02;0.47;;;0.20;;
40847;SDS011;26570;50.962;5.340;2022-10-16T02:39:49;6.73;;;0.30;;
40847;SDS011;26570;50.962;5.340;2022-10-16T02:42:36;4.20;;;0.20;;
40847;SDS011;26570;50.962;5.340;2022-10-16T02:45:23;2.30;;;0.20;;
40847;SDS011;26570;50.962;5.340;2022-10-16T02:48:08;1.73;;;0.27;;
40847;SDS011;26570;50.962;5.340;2022-10-16T02:50:54;7.33;;;0.23;;
40847;SDS011;26570;50.962;5.340;2022-10-16T02:53:39;2.23;;;0.20;;
40847;SDS011;26570;50.962;5.340;2022-10-16T02:56:24;1.17;;;0.20;;
40847;SDS011;26570;50.962;5.340;2022-10-16T02:59:10;3.80;;;0.30;;
40847;SDS011;26570;50.962;5.340;2022-10-16T03:01:55;1.40;;;0.20;;
40847;SDS011;26570;50.962;5.340;2022-10-16T03:04:40;0.90;;;0.30;;
40847;SDS011;26570;50.962;5.340;2022-10-16T03:07:26;4.70;;;0.27;;
40847;SDS011;26570;50.962;5.340;2022-10-16T03:10:11;1.50;;;0.20;;
40847;SDS011;26570;50.962;5.340;2022-10-16T03:12:57;2.70;;;0.23;;
40847;SDS011;26570;50.962;5.340;2022-10-16T03:15:43;0.83;;;0.20;;
40847;SDS011;26570;50.962;5.340;2022-10-16T03:18:28;2.00;;;0.20;;
40847;SDS011;26570;50.962;5.340;2022-10-16T03:21:14;2.83;;;0.20;;
40847;SDS011;26570;50.962;5.340;2022-10-16T03:24:00;2.63;;;0.20;;
40847;SDS011;26570;50.962;5.340;2022-10-16T03:26:46;1.50;;;0.20;;
40847;SDS011;26570;50.962;5.340;2022-10-16T03:29:31;1.03;;;0.20;;
40847;SDS011;26570;50.962;5.340;2022-10-16T03:32:17;5.50;;;0.30;;
40847;SDS011;26570;50.962;5.340;2022-10-16T03:35:04;0.93;;;0.20;;
40847;SDS011;26570;50.962;5.340;2022-10-16T03:37:50;3.70;;;0.20;;
40847;SDS011;26570;50.962;5.340;2022-10-16T03:40:35;0.93;;;0.20;;
40847;SDS011;26570;50.962;5.340;2022-10-16T03:43:21;1.37;;;0.20;;
40847;SDS011;26570;50.962;5.340;2022-10-16T03:46:06;4.00;;;0.30;;
40847;SDS011;26570;50.962;5.340;2022-10-16T03:48:52;2.63;;;0.20;;
40847;SDS011;26570;50.962;5.340;2022-10-16T03:51:37;0.40;;;0.20;;
40847;SDS011;26570;50.962;5.340;2022-10-16T03:54:22;2.70;;;0.20;;
40847;SDS011;26570;50.962;5.340;2022-10-16T03:57:07;5.73;;;0.20;;
40847;SDS011;26570;50.962;5.340;2022-10-16T03:59:52;1.60;;;0.30;;
40847;SDS011;26570;50.962;5.340;2022-10-16T04:02:37;1.73;;;0.20;;
40847;SDS011;26570;50.962;5.340;2022-10-16T04:05:23;2.90;;;0.20;;
40847;SDS011;26570;50.962;5.340;2022-10-16T04:08:09;1.93;;;0.30;;
40847;SDS011;26570;50.962;5.340;2022-10-16T04:10:54;0.87;;;0.30;;
40847;SDS011;26570;50.962;5.340;2022-10-16T04:13:40;0.83;;;0.40;;
40847;SDS011;26570;50.962;5.340;2022-10-16T04:16:25;3.53;;;0.20;;
40847;SDS011;26570;50.962;5.340;2022-10-16T04:19:10;2.77;;;0.30;;
40847;SDS011;26570;50.962;5.340;2022-10-16T04:21:56;1.80;;;0.30;;
40847;SDS011;26570;50.962;5.340;2022-10-16T04:24:41;0.70;;;0.23;;
40847;SDS011;26570;50.962;5.340;2022-10-16T04:27:26;2.50;;;0.30;;
40847;SDS011;26570;50.962;5.340;2022-10-16T04:30:12;2.60;;;0.30;;
40847;SDS011;26570;50.962;5.340;2022-10-16T04:32:58;2.10;;;0.40;;
40847;SDS011;26570;50.962;5.340;2022-10-16T04:35:42;6.77;;;0.80;;
40847;SDS011;26570;50.962;5.340;2022-10-16T04:38:28;2.10;;;0.40;;
40847;SDS011;26570;50.962;5.340;2022-10-16T04:41:13;2.67;;;0.50;;
40847;SDS011;26570;50.962;5.340;2022-10-16T04:43:59;3.47;;;0.50;;
40847;SDS011;26570;50.962;5.340;2022-10-16T04:46:44;1.63;;;0.50;;
40847;SDS011;26570;50.962;5.340;2022-10-16T04:49:30;1.53;;;0.60;;
40847;SDS011;26570;50.962;5.340;2022-10-16T04:52:15;3.17;;;0.67;;
40847;SDS011;26570;50.962;5.340;2022-10-16T04:55:01;2.27;;;0.63;;
40847;SDS011;26570;50.962;5.340;2022-10-16T04:57:47;3.13;;;0.50;;
40847;SDS011;26570;50.962;5.340;2022-10-16T05:00:33;2.53;;;0.60;;
40847;SDS011;26570;50.962;5.340;2022-10-16T05:03:18;4.97;;;0.70;;
40847;SDS011;26570;50.962;5.340;2022-10-16T05:06:07;1.40;;;0.50;;
40847;SDS011;26570;50.962;5.340;2022-10-16T05:08:53;3.67;;;0.40;;
40847;SDS011;26570;50.962;5.340;2022-10-16T05:11:38;0.93;;;0.40;;
40847;SDS011;26570;50.962;5.340;2022-10-16T05:14:23;4.60;;;0.50;;
40847;SDS011;26570;50.962;5.340;2022-10-16T05:17:09;2.20;;;0.50;;
40847;SDS011;26570;50.962;5.340;2022-10-16T05:19:54;6.43;;;0.60;;
40847;SDS011;26570;50.962;5.340;2022-10-16T05:22:39;3.50;;;0.60;;
40847;SDS011;26570;50.962;5.340;2022-10-16T05:25:24;2.83;;;0.53;;
40847;SDS011;26570;50.962;5.340;2022-10-16T05:28:10;2.37;;;0.60;;
40847;SDS011;26570;50.962;5.340;2022-10-16T05:30:56;6.40;;;0.60;;
40847;SDS011;26570;50.962;5.340;2022-10-16T05:33:41;4.73;;;0.70;;
40847;SDS011;26570;50.962;5.340;2022-10-16T05:36:28;4.40;;;0.60;;
40847;SDS011;26570;50.962;5.340;2022-10-16T05:39:14;4.03;;;0.60;;
40847;SDS011;26570;50.962;5.340;2022-10-16T05:41:59;2.63;;;0.60;;
40847;SDS011;26570;50.962;5.340;2022-10-16T05:44:44;2.53;;;0.60;;
40847;SDS011;26570;50.962;5.340;2022-10-16T05:47:29;6.83;;;0.70;;
40847;SDS011;26570;50.962;5.340;2022-10-16T05:50:15;3.50;;;0.70;;
40847;SDS011;26570;50.962;5.340;2022-10-16T05:53:00;1.87;;;0.60;;
40847;SDS011;26570;50.962;5.340;2022-10-16T05:55:51;3.43;;;0.60;;
40847;SDS011;26570;50.962;5.340;2022-10-16T05:58:37;3.83;;;0.70;;
40847;SDS011;26570;50.962;5.340;2022-10-16T06:01:24;5.37;;;0.60;;
40847;SDS011;26570;50.962;5.340;2022-10-16T06:04:10;4.07;;;0.57;;
40847;SDS011;26570;50.962;5.340;2022-10-16T06:06:57;2.20;;;0.60;;
40847;SDS011;26570;50.962;5.340;2022-10-16T06:09:49;3.40;;;0.60;;
40847;SDS011;26570;50.962;5.340;2022-10-16T06:12:35;2.30;;;0.70;;
40847;SDS011;26570;50.962;5.340;2022-10-16T06:15:21;2.10;;;0.70;;
40847;SDS011;26570;50.962;5.340;2022-10-16T06:18:10;2.23;;;0.70;;
40847;SDS011;26570;50.962;5.340;2022-10-16T06:20:58;4.37;;;0.70;;
40847;SDS011;26570;50.962;5.340;2022-10-16T06:23:43;3.70;;;0.60;;
40847;SDS011;26570;50.962;5.340;2022-10-16T06:26:30;2.60;;;0.80;;
40847;SDS011;26570;50.962;5.340;2022-10-16T06:29:15;4.27;;;0.97;;
40847;SDS011;26570;50.962;5.340;2022-10-16T06:32:00;3.47;;;0.80;;
40847;SDS011;26570;50.962;5.340;2022-10-16T06:34:46;5.10;;;1.00;;
40847;SDS011;26570;50.962;5.340;2022-10-16T06:37:32;5.90;;;1.63;;
40847;SDS011;26570;50.962;5.340;2022-10-16T06:40:16;4.27;;;1.60;;
40847;SDS011;26570;50.962;5.340;2022-10-16T06:43:01;3.93;;;1.47;;
40847;SDS011;26570;50.962;5.340;2022-10-16T06:45:51;6.10;;;1.00;;
40847;SDS011;26570;50.962;5.340;2022-10-16T06:48:41;8.75;;;1.77;;
40847;SDS011;26570;50.962;5.340;2022-10-16T06:51:29;3.33;;;1.07;;
40847;SDS011;26570;50.962;5.340;2022-10-16T06:54:17;5.27;;;0.77;;
40847;SDS011;26570;50.962;5.340;2022-10-16T06:57:08;4.07;;;0.70;;
40847;SDS011;26570;50.962;5.340;2022-10-16T06:59:54;4.53;;;0.67;;
40847;SDS011;26570;50.962;5.340;2022-10-16T07:02:39;3.90;;;0.80;;
40847;SDS011;26570;50.962;5.340;2022-10-16T07:05:37;5.37;;;0.90;;
40847;SDS011;26570;50.962;5.340;2022-10-16T07:08:22;2.80;;;0.90;;
40847;SDS011;26570;50.962;5.340;2022-10-16T07:11:09;4.00;;;0.90;;
40847;SDS011;26570;50.962;5.340;2022-10-16T07:13:56;7.67;;;1.17;;
40847;SDS011;26570;50.962;5.340;2022-10-16T07:16:41;2.33;;;0.70;;
40847;SDS011;26570;50.962;5.340;2022-10-16T07:19:26;3.13;;;0.80;;
40847;SDS011;26570;50.962;5.340;2022-10-16T07:22:12;5.63;;;0.70;;
40847;SDS011;26570;50.962;5.340;2022-10-16T07:24:57;4.13;;;0.90;;
40847;SDS011;26570;50.962;5.340;2022-10-16T07:27:42;4.40;;;0.80;;
40847;SDS011;26570;50.962;5.340;2022-10-16T07:30:27;5.43;;;0.80;;
40847;SDS011;26570;50.962;5.340;2022-10-16T07:33:12;3.90;;;0.97;;
40847;SDS011;26570;50.962;5.340;2022-10-16T07:35:56;4.97;;;0.70;;
40847;SDS011;26570;50.962;5.340;2022-10-16T07:38:42;2.67;;;0.60;;
40847;SDS011;26570;50.962;5.340;2022-10-16T07:41:27;3.57;;;0.60;;
40847;SDS011;26570;50.962;5.340;2022-10-16T07:44:12;1.53;;;0.50;;
40847;SDS011;26570;50.962;5.340;2022-10-16T07:46:57;2.30;;;0.50;;
40847;SDS011;26570;50.962;5.340;2022-10-16T07:49:42;0.90;;;0.33;;
40847;SDS011;26570;50.962;5.340;2022-10-16T07:52:28;1.57;;;0.40;;
40847;SDS011;26570;50.962;5.340;2022-10-16T07:55:13;4.07;;;0.30;;
40847;SDS011;26570;50.962;5.340;2022-10-16T07:57:58;1.50;;;0.30;;
40847;SDS011;26570;50.962;5.340;2022-10-16T08:00:42;1.73;;;0.37;;
40847;SDS011;26570;50.962;5.340;2022-10-16T08:03:27;2.97;;;0.30;;
40847;SDS011;26570;50.962;5.340;2022-10-16T08:06:12;4.50;;;0.33;;
40847;SDS011;26570;50.962;5.340;2022-10-16T08:08:57;1.00;;;0.30;;
40847;SDS011;26570;50.962;5.340;2022-10-16T08:11:44;2.57;;;0.30;;
40847;SDS011;26570;50.962;5.340;2022-10-16T08:14:29;2.17;;;0.30;;
40847;SDS011;26570;50.962;5.340;2022-10-16T08:17:14;2.23;;;0.20;;
40847;SDS011;26570;50.962;5.340;2022-10-16T08:19:59;1.17;;;0.30;;
40847;SDS011;26570;50.962;5.340;2022-10-16T08:22:44;3.27;;;0.30;;
40847;SDS011;26570;50.962;5.340;2022-10-16T08:25:29;1.87;;;0.30;;
40847;SDS011;26570;50.962;5.340;2022-10-16T08:28:14;1.23;;;0.20;;
40847;SDS011;26570;50.962;5.340;2022-10-16T08:31:13;6.77;;;0.40;;
40847;SDS011;26570;50.962;5.340;2022-10-16T08:34:00;15.37;;;0.37;;
40847;SDS011;26570;50.962;5.340;2022-10-16T08:36:45;1.83;;;0.30;;
40847;SDS011;26570;50.962;5.340;2022-10-16T08:39:30;2.07;;;0.30;;
40847;SDS011;26570;50.962;5.340;2022-10-16T08:45:21;1.33;;;0.20;;
40847;SDS011;26570;50.962;5.340;2022-10-16T08:51:02;1.67;;;0.20;;
40847;SDS011;26570;50.962;5.340;2022-10-16T08:53:58;1.40;;;0.30;;
40847;SDS011;26570;50.962;5.340;2022-10-16T08:56:46;5.63;;;0.30;;
40847;SDS011;26570;50.962;5.340;2022-10-16T08:59:31;3.43;;;0.30;;
40847;SDS011;26570;50.962;5.340;2022-10-16T09:08:22;3.10;;;0.20;;
40847;SDS011;26570;50.962;5.340;2022-10-16T09:17:37;0.98;;;0.30;;
40847;SDS011;26570;50.962;5.340;2022-10-16T09:23:29;2.75;;;0.22;;
40847;SDS011;26570;50.962;5.340;2022-10-16T09:26:18;3.95;;;0.30;;
40847;SDS011;26570;50.962;5.340;2022-10-16T09:29:05;3.08;;;0.20;;
40847;SDS011;26570;50.962;5.340;2022-10-16T09:31:52;3.13;;;0.20;;
40847;SDS011;26570;50.962;5.340;2022-10-16T09:34:45;2.92;;;0.20;;
40847;SDS011;26570;50.962;5.340;2022-10-16T09:37:34;1.92;;;0.20;;
40847;SDS011;26570;50.962;5.340;2022-10-16T09:40:30;1.40;;;0.20;;
40847;SDS011;26570;50.962;5.340;2022-10-16T09:43:26;3.42;;;0.20;;
40847;SDS011;26570;50.962;5.340;2022-10-16T09:46:47;3.40;;;0.20;;
40847;SDS011;26570;50.962;5.340;2022-10-16T09:49:25;1.55;;;0.10;;
40847;SDS011;26570;50.962;5.340;2022-10-16T09:52:14;2.78;;;0.25;;
40847;SDS011;26570;50.962;5.340;2022-10-16T09:55:02;1.77;;;0.20;;
40847;SDS011;26570;50.962;5.340;2022-10-16T09:57:57;1.00;;;0.20;;
40847;SDS011;26570;50.962;5.340;2022-10-16T10:00:42;4.03;;;0.20;;
40847;SDS011;26570;50.962;5.340;2022-10-16T10:03:36;3.05;;;0.30;;
40847;SDS011;26570;50.962;5.340;2022-10-16T10:06:24;2.25;;;0.10;;
40847;SDS011;26570;50.962;5.340;2022-10-16T10:12:23;1.48;;;0.20;;
40847;SDS011;26570;50.962;5.340;2022-10-16T10:15:13;2.50;;;0.20;;
40847;SDS011;26570;50.962;5.340;2022-10-16T10:18:14;3.60;;;0.37;;
40847;SDS011;26570;50.962;5.340;2022-10-16T10:21:02;3.22;;;0.20;;
40847;SDS011;26570;50.962;5.340;2022-10-16T10:23:55;1.17;;;0.20;;
40847;SDS011;26570;50.962;5.340;2022-10-16T10:26:49;1.75;;;0.20;;
40847;SDS011;26570;50.962;5.340;2022-10-16T10:41:51;2.28;;;0.20;;
40847;SDS011;26570;50.962;5.340;2022-10-16T10:45:01;2.72;;;0.30;;
40847;SDS011;26570;50.962;5.340;2022-10-16T10:48:04;3.47;;;0.28;;
40847;SDS011;26570;50.962;5.340;2022-10-16T10:50:52;1.30;;;0.13;;
40847;SDS011;26570;50.962;5.340;2022-10-16T10:57:20;2.03;;;0.13;;
40847;SDS011;26570;50.962;5.340;2022-10-16T11:09:36;4.20;;;0.20;;
40847;SDS011;26570;50.962;5.340;2022-10-16T11:12:30;2.70;;;0.10;;
40847;SDS011;26570;50.962;5.340;2022-10-16T11:18:52;1.65;;;0.20;;
40847;SDS011;26570;50.962;5.340;2022-10-16T11:21:31;2.13;;;0.20;;
40847;SDS011;26570;50.962;5.340;2022-10-16T11:27:18;1.60;;;0.10;;
40847;SDS011;26570;50.962;5.340;2022-10-16T11:30:28;3.55;;;0.10;;
40847;SDS011;26570;50.962;5.340;2022-10-16T11:33:20;1.67;;;0.10;;
40847;SDS011;26570;50.962;5.340;2022-10-16T11:36:19;3.90;;;0.10;;
40847;SDS011;26570;50.962;5.340;2022-10-16T11:42:05;1.30;;;0.10;;
40847;SDS011;26570;50.962;5.340;2022-10-16T11:51:38;1.20;;;0.10;;
40847;SDS011;26570;50.962;5.340;2022-10-16T11:57:24;2.45;;;0.10;;
40847;SDS011;26570;50.962;5.340;2022-10-16T12:00:26;2.40;;;0.10;;
40847;SDS011;26570;50.962;5.340;2022-10-16T12:06:37;2.67;;;0.10;;
40847;SDS011;26570;50.962;5.340;2022-10-16T12:09:31;0.60;;;0.10;;
40847;SDS011;26570;50.962;5.340;2022-10-16T12:15:23;2.15;;;0.10;;
40847;SDS011;26570;50.962;5.340;2022-10-16T12:18:20;1.73;;;0.20;;
40847;SDS011;26570;50.962;5.340;2022-10-16T12:21:08;2.38;;;0.20;;
40847;SDS011;26570;50.962;5.340;2022-10-16T12:23:58;1.67;;;0.10;;
40847;SDS011;26570;50.962;5.340;2022-10-16T12:26:44;2.13;;;0.10;;
40847;SDS011;26570;50.962;5.340;2022-10-16T12:32:33;3.67;;;0.10;;
40847;SDS011;26570;50.962;5.340;2022-10-16T12:35:27;2.42;;;0.10;;
40847;SDS011;26570;50.962;5.340;2022-10-16T12:38:18;3.65;;;0.20;;
40847;SDS011;26570;50.962;5.340;2022-10-16T12:41:06;0.95;;;0.10;;
40847;SDS011;26570;50.962;5.340;2022-10-16T12:43:52;2.33;;;0.10;;
40847;SDS011;26570;50.962;5.340;2022-10-16T12:46:38;0.95;;;0.10;;
40847;SDS011;26570;50.962;5.340;2022-10-16T12:49:37;1.90;;;0.13;;
40847;SDS011;26570;50.962;5.340;2022-10-16T12:52:24;1.98;;;0.10;;
40847;SDS011;26570;50.962;5.340;2022-10-16T12:55:20;1.08;;;0.10;;
40847;SDS011;26570;50.962;5.340;2022-10-16T13:00:57;2.08;;;0.10;;
40847;SDS011;26570;50.962;5.340;2022-10-16T13:09:33;1.08;;;0.10;;
40847;SDS011;26570;50.962;5.340;2022-10-16T13:18:43;2.63;;;0.10;;
40847;SDS011;26570;50.962;5.340;2022-10-16T13:21:54;0.50;;;0.10;;
40847;SDS011;26570;50.962;5.340;2022-10-16T13:25:05;1.15;;;0.10;;
40847;SDS011;26570;50.962;5.340;2022-10-16T13:28:13;1.33;;;0.10;;
40847;SDS011;26570;50.962;5.340;2022-10-16T13:31:10;0.43;;;0.10;;
40847;SDS011;26570;50.962;5.340;2022-10-16T13:34:05;0.70;;;0.10;;
40847;SDS011;26570;50.962;5.340;2022-10-16T13:36:56;2.72;;;0.10;;
40847;SDS011;26570;50.962;5.340;2022-10-16T13:39:41;1.23;;;0.25;;
40847;SDS011;26570;50.962;5.340;2022-10-16T13:42:26;2.35;;;0.00;;
40847;SDS011;26570;50.962;5.340;2022-10-16T13:45:19;0.80;;;0.10;;
40847;SDS011;26570;50.962;5.340;2022-10-16T13:48:06;1.17;;;0.05;;
40847;SDS011;26570;50.962;5.340;2022-10-16T13:50:59;0.45;;;0.00;;
40847;SDS011;26570;50.962;5.340;2022-10-16T13:53:46;2.00;;;0.10;;
40847;SDS011;26570;50.962;5.340;2022-10-16T13:56:32;0.65;;;0.10;;
40847;SDS011;26570;50.962;5.340;2022-10-16T13:59:27;1.83;;;0.10;;
40847;SDS011;26570;50.962;5.340;2022-10-16T14:02:22;0.68;;;0.10;;
40847;SDS011;26570;50.962;5.340;2022-10-16T14:05:19;0.68;;;0.10;;
40847;SDS011;26570;50.962;5.340;2022-10-16T14:08:03;2.20;;;0.10;;
40847;SDS011;26570;50.962;5.340;2022-10-16T14:10:49;0.60;;;0.10;;
40847;SDS011;26570;50.962;5.340;2022-10-16T14:13:38;1.00;;;0.10;;
40847;SDS011;26570;50.962;5.340;2022-10-16T14:16:29;2.28;;;0.10;;
40847;SDS011;26570;50.962;5.340;2022-10-16T14:19:18;0.55;;;0.10;;
40847;SDS011;26570;50.962;5.340;2022-10-16T14:22:24;1.70;;;0.10;;
40847;SDS011;26570;50.962;5.340;2022-10-16T14:28:04;1.60;;;0.05;;
40847;SDS011;26570;50.962;5.340;2022-10-16T14:31:00;0.50;;;0.00;;
40847;SDS011;26570;50.962;5.340;2022-10-16T14:33:47;1.52;;;0.10;;
40847;SDS011;26570;50.962;5.340;2022-10-16T14:36:31;1.15;;;0.10;;
40847;SDS011;26570;50.962;5.340;2022-10-16T14:39:19;0.93;;;0.08;;
40847;SDS011;26570;50.962;5.340;2022-10-16T14:42:11;0.93;;;0.00;;
40847;SDS011;26570;50.962;5.340;2022-10-16T14:45:00;1.20;;;0.10;;
40847;SDS011;26570;50.962;5.340;2022-10-16T14:47:49;1.40;;;0.08;;
40847;SDS011;26570;50.962;5.340;2022-10-16T14:50:36;1.98;;;0.10;;
40847;SDS011;26570;50.962;5.340;2022-10-16T14:53:21;2.35;;;0.10;;
40847;SDS011;26570;50.962;5.340;2022-10-16T14:56:35;2.78;;;0.10;;
40847;SDS011;26570;50.962;5.340;2022-10-16T15:02:31;0.82;;;0.00;;
40847;SDS011;26570;50.962;5.340;2022-10-16T15:05:21;2.30;;;0.20;;
40847;SDS011;26570;50.962;5.340;2022-10-16T15:08:11;1.95;;;0.05;;
40847;SDS011;26570;50.962;5.340;2022-10-16T15:10:57;1.50;;;0.10;;
40847;SDS011;26570;50.962;5.340;2022-10-16T15:13:42;1.73;;;0.10;;
40847;SDS011;26570;50.962;5.340;2022-10-16T15:16:27;1.00;;;0.10;;
40847;SDS011;26570;50.962;5.340;2022-10-16T15:19:12;2.50;;;0.13;;
40847;SDS011;26570;50.962;5.340;2022-10-16T15:21:52;0.60;;;0.10;;
40847;SDS011;26570;50.962;5.340;2022-10-16T15:24:37;1.30;;;0.10;;
40847;SDS011;26570;50.962;5.340;2022-10-16T15:27:22;1.42;;;0.10;;
40847;SDS011;26570;50.962;5.340;2022-10-16T15:30:07;1.27;;;0.10;;
40847;SDS011;26570;50.962;5.340;2022-10-16T15:32:52;2.60;;;0.10;;
40847;SDS011;26570;50.962;5.340;2022-10-16T15:35:37;2.35;;;0.20;;
40847;SDS011;26570;50.962;5.340;2022-10-16T15:38:22;2.25;;;0.10;;
40847;SDS011;26570;50.962;5.340;2022-10-16T15:41:07;1.08;;;0.10;;
40847;SDS011;26570;50.962;5.340;2022-10-16T15:43:52;3.28;;;0.13;;
40847;SDS011;26570;50.962;5.340;2022-10-16T15:46:37;0.50;;;0.10;;
40847;SDS011;26570;50.962;5.340;2022-10-16T15:49:22;0.90;;;0.10;;
40847;SDS011;26570;50.962;5.340;2022-10-16T15:52:07;2.15;;;0.10;;
40847;SDS011;26570;50.962;5.340;2022-10-16T15:54:57;2.00;;;0.20;;
40847;SDS011;26570;50.962;5.340;2022-10-16T15:57:42;3.78;;;0.20;;
40847;SDS011;26570;50.962;5.340;2022-10-16T16:00:27;1.02;;;0.20;;
40847;SDS011;26570;50.962;5.340;2022-10-16T16:03:12;1.17;;;0.20;;
40847;SDS011;26570;50.962;5.340;2022-10-16T16:05:58;0.80;;;0.10;;
40847;SDS011;26570;50.962;5.340;2022-10-16T16:08:47;1.45;;;0.10;;
40847;SDS011;26570;50.962;5.340;2022-10-16T16:11:32;3.60;;;0.20;;
40847;SDS011;26570;50.962;5.340;2022-10-16T16:14:21;4.28;;;0.50;;
40847;SDS011;26570;50.962;5.340;2022-10-16T16:17:08;2.10;;;0.30;;
40847;SDS011;26570;50.962;5.340;2022-10-16T16:19:54;1.38;;;0.20;;
40847;SDS011;26570;50.962;5.340;2022-10-16T16:22:39;1.55;;;0.22;;
40847;SDS011;26570;50.962;5.340;2022-10-16T16:25:24;3.95;;;0.30;;
40847;SDS011;26570;50.962;5.340;2022-10-16T16:28:10;3.27;;;0.20;;
40847;SDS011;26570;50.962;5.340;2022-10-16T16:30:58;1.73;;;0.20;;
40847;SDS011;26570;50.962;5.340;2022-10-16T16:33:43;2.23;;;0.20;;
40847;SDS011;26570;50.962;5.340;2022-10-16T16:36:29;2.03;;;0.30;;
40847;SDS011;26570;50.962;5.340;2022-10-16T16:39:14;2.30;;;0.20;;
40847;SDS011;26570;50.962;5.340;2022-10-16T16:42:00;1.30;;;0.20;;
40847;SDS011;26570;50.962;5.340;2022-10-16T16:44:50;3.33;;;0.30;;
40847;SDS011;26570;50.962;5.340;2022-10-16T16:47:35;4.83;;;0.23;;
40847;SDS011;26570;50.962;5.340;2022-10-16T16:50:22;1.63;;;0.20;;
40847;SDS011;26570;50.962;5.340;2022-10-16T16:53:07;3.27;;;0.30;;
40847;SDS011;26570;50.962;5.340;2022-10-16T16:55:52;2.00;;;0.30;;
40847;SDS011;26570;50.962;5.340;2022-10-16T16:58:38;4.23;;;0.30;;
40847;SDS011;26570;50.962;5.340;2022-10-16T17:01:24;2.00;;;0.30;;
40847;SDS011;26570;50.962;5.340;2022-10-16T17:04:10;2.33;;;0.37;;
40847;SDS011;26570;50.962;5.340;2022-10-16T17:06:57;1.90;;;0.40;;
40847;SDS011;26570;50.962;5.340;2022-10-16T17:09:42;3.27;;;0.70;;
40847;SDS011;26570;50.962;5.340;2022-10-16T17:12:28;3.77;;;0.90;;
40847;SDS011;26570;50.962;5.340;2022-10-16T17:15:13;6.40;;;0.70;;
40847;SDS011;26570;50.962;5.340;2022-10-16T17:17:58;7.27;;;1.70;;
40847;SDS011;26570;50.962;5.340;2022-10-16T17:20:43;8.10;;;0.93;;
40847;SDS011;26570;50.962;5.340;2022-10-16T17:23:29;4.93;;;1.10;;
40847;SDS011;26570;50.962;5.340;2022-10-16T17:26:15;3.60;;;0.90;;
40847;SDS011;26570;50.962;5.340;2022-10-16T17:29:01;9.03;;;0.90;;
40847;SDS011;26570;50.962;5.340;2022-10-16T17:31:46;2.50;;;0.87;;
40847;SDS011;26570;50.962;5.340;2022-10-16T17:34:33;4.03;;;0.80;;
40847;SDS011;26570;50.962;5.340;2022-10-16T17:37:18;3.13;;;0.80;;
40847;SDS011;26570;50.962;5.340;2022-10-16T17:40:03;4.87;;;0.80;;
40847;SDS011;26570;50.962;5.340;2022-10-16T17:42:49;6.17;;;0.60;;
40847;SDS011;26570;50.962;5.340;2022-10-16T17:45:37;8.33;;;0.80;;
40847;SDS011;26570;50.962;5.340;2022-10-16T17:48:22;10.27;;;2.40;;
40847;SDS011;26570;50.962;5.340;2022-10-16T17:51:09;15.93;;;6.47;;
40847;SDS011;26570;50.962;5.340;2022-10-16T17:53:56;11.23;;;2.73;;
40847;SDS011;26570;50.962;5.340;2022-10-16T17:56:42;10.93;;;3.00;;
40847;SDS011;26570;50.962;5.340;2022-10-16T17:59:28;8.77;;;3.53;;
40847;SDS011;26570;50.962;5.340;2022-10-16T18:02:13;10.07;;;5.10;;
40847;SDS011;26570;50.962;5.340;2022-10-16T18:04:58;11.67;;;3.90;;
40847;SDS011;26570;50.962;5.340;2022-10-16T18:07:43;12.07;;;3.60;;
40847;SDS011;26570;50.962;5.340;2022-10-16T18:10:28;9.13;;;4.33;;
40847;SDS011;26570;50.962;5.340;2022-10-16T18:13:14;11.90;;;3.67;;
40847;SDS011;26570;50.962;5.340;2022-10-16T18:16:04;9.07;;;3.97;;
40847;SDS011;26570;50.962;5.340;2022-10-16T18:18:56;9.77;;;3.30;;
40847;SDS011;26570;50.962;5.340;2022-10-16T18:21:41;9.70;;;3.00;;
40847;SDS011;26570;50.962;5.340;2022-10-16T18:24:27;9.30;;;2.80;;
40847;SDS011;26570;50.962;5.340;2022-10-16T18:27:12;6.50;;;3.17;;
40847;SDS011;26570;50.962;5.340;2022-10-16T18:29:58;6.27;;;3.47;;
40847;SDS011;26570;50.962;5.340;2022-10-16T18:32:43;7.20;;;3.77;;
40847;SDS011;26570;50.962;5.340;2022-10-16T18:35:28;9.23;;;4.63;;
40847;SDS011;26570;50.962;5.340;2022-10-16T18:38:14;11.10;;;5.37;;
40847;SDS011;26570;50.962;5.340;2022-10-16T18:41:00;26.80;;;5.27;;
40847;SDS011;26570;50.962;5.340;2022-10-16T18:43:47;10.33;;;2.87;;
40847;SDS011;26570;50.962;5.340;2022-10-16T18:46:32;9.57;;;3.03;;
40847;SDS011;26570;50.962;5.340;2022-10-16T18:49:18;11.20;;;1.70;;
40847;SDS011;26570;50.962;5.340;2022-10-16T18:52:03;4.50;;;1.37;;